createdAt,value
2022-10-11T00:00:10.793Z,97477.88
2022-10-11T00:05:06.357Z,97480.97
2022-10-11T00:09:59.639Z,97488.13
2022-10-11T00:14:52.967Z,97496.56
2022-10-11T00:19:46.471Z,97492.97
2022-10-11T00:24:41.179Z,97498.00
2022-10-11T00:29:34.553Z,97500.38
2022-10-11T00:34:27.913Z,97501.13
2022-10-11T00:39:21.295Z,97504.47
2022-10-11T00:44:19.848Z,97499.00
2022-10-11T00:49:22.777Z,97492.28
2022-10-11T00:54:21.705Z,97501.56
2022-10-11T00:59:24.425Z,97487.31
2022-10-11T01:04:17.846Z,97488.53
2022-10-11T01:09:12.080Z,97480.22
2022-10-11T01:14:44.128Z,97476.72
2022-10-11T01:19:56.112Z,97476.13
2022-10-11T01:25:19.351Z,97480.78
2022-10-11T01:30:31.246Z,97478.97
2022-10-11T01:35:33.659Z,97478.03
2022-10-11T01:40:35.729Z,97480.16
2022-10-11T01:45:33.975Z,97471.72
2022-10-11T01:50:41.764Z,97467.66
2022-10-11T01:55:48.387Z,97453.78
2022-10-11T02:00:53.499Z,97454.38
2022-10-11T02:05:52.916Z,97455.69
2022-10-11T02:10:53.866Z,97453.53
2022-10-11T02:15:51.647Z,97448.06
2022-10-11T02:20:48.019Z,97433.75
2022-10-11T02:25:45.502Z,97424.63
2022-10-11T02:30:43.037Z,97426.34
2022-10-11T02:35:45.441Z,97433.25
2022-10-11T02:40:48.761Z,97433.09
2022-10-11T02:45:49.403Z,97418.97
2022-10-11T02:50:45.353Z,97420.66
2022-10-11T02:55:39.153Z,97419.59
2022-10-11T03:00:33.117Z,97423.69
2022-10-11T03:05:26.441Z,97430.63
2022-10-11T03:10:21.260Z,97441.94
2022-10-11T03:15:14.554Z,97439.53
2022-10-11T03:20:09.615Z,97434.63
2022-10-11T03:25:04.657Z,97436.84
2022-10-11T03:29:59.585Z,97424.03
2022-10-11T03:34:52.905Z,97426.34
2022-10-11T03:39:46.635Z,97432.09
2022-10-11T03:44:41.687Z,97436.88
2022-10-11T03:49:41.318Z,97439.50
2022-10-11T03:54:36.777Z,97437.09
2022-10-11T03:59:30.174Z,97438.28
2022-10-11T04:04:23.480Z,97453.09
2022-10-11T04:09:18.205Z,97452.03
2022-10-11T04:14:11.677Z,97439.00
2022-10-11T04:19:05.071Z,97442.09
2022-10-11T04:23:58.402Z,97447.34
2022-10-11T04:28:53.087Z,97434.78
2022-10-11T04:33:46.335Z,97442.31
2022-10-11T04:38:39.566Z,97441.97
2022-10-11T04:43:32.837Z,97445.91
2022-10-11T04:48:27.567Z,97443.03
2022-10-11T04:53:20.904Z,97448.78
2022-10-11T04:58:14.163Z,97449.75
2022-10-11T05:03:10.402Z,97456.91
2022-10-11T05:08:05.263Z,97468.28
2022-10-11T05:12:58.543Z,97467.44
2022-10-11T05:17:51.799Z,97471.63
2022-10-11T05:22:45.115Z,97471.75
2022-10-11T05:27:39.799Z,97481.47
2022-10-11T05:32:33.126Z,97481.41
2022-10-11T05:37:37.055Z,97483.69
2022-10-11T05:42:30.317Z,97484.63
2022-10-11T05:47:25.202Z,97484.41
2022-10-11T05:52:20.457Z,97487.25
2022-10-11T05:57:13.750Z,97492.28
2022-10-11T06:02:08.330Z,97491.81
2022-10-11T06:07:03.440Z,97504.16
2022-10-11T06:11:56.825Z,97508.44
2022-10-11T06:16:50.113Z,97507.28
2022-10-11T06:21:43.430Z,97511.94
2022-10-11T06:26:38.067Z,97505.34
2022-10-11T06:31:31.391Z,97516.63
2022-10-11T06:36:24.748Z,97520.44
2022-10-11T06:41:21.920Z,97514.25
2022-10-11T06:46:17.774Z,97522.78
2022-10-11T06:51:11.113Z,97532.38
2022-10-11T06:56:05.473Z,97520.00
2022-10-11T07:01:02.254Z,97525.97
2022-10-11T07:06:02.609Z,97530.91
2022-10-11T07:11:02.009Z,97539.91
2022-10-11T07:15:55.288Z,97546.72
2022-10-11T07:20:48.738Z,97547.31
2022-10-11T07:25:43.780Z,97556.69
2022-10-11T07:30:40.274Z,97557.16
2022-10-11T07:35:36.703Z,97559.53
2022-10-11T07:40:30.039Z,97559.53
2022-10-11T07:45:24.960Z,97554.75
2022-10-11T07:50:18.360Z,97564.69
2022-10-11T07:55:11.593Z,97560.38
2022-10-11T08:00:06.076Z,97563.78
2022-10-11T08:05:00.923Z,97596.41
2022-10-11T08:09:54.246Z,97621.34
2022-10-11T08:14:47.541Z,97635.50
2022-10-11T08:19:40.866Z,97652.16
2022-10-11T08:24:41.028Z,97666.19
2022-10-11T08:29:34.683Z,97667.00
2022-10-11T08:34:35.383Z,97674.03
2022-10-11T08:39:30.880Z,97681.75
2022-10-11T08:45:09.376Z,97679.19
2022-10-11T08:50:00.086Z,97686.53
2022-10-11T08:55:04.467Z,97670.25
2022-10-11T09:00:04.485Z,97671.13
2022-10-11T09:05:01.147Z,97671.72
2022-10-11T09:10:36.895Z,97673.97
2022-10-11T09:15:43.336Z,97668.91
2022-10-11T09:20:52.907Z,97657.75
2022-10-11T09:25:56.100Z,97671.09
2022-10-11T09:30:55.816Z,97673.91
2022-10-11T09:35:52.671Z,97670.19
2022-10-11T09:41:09.025Z,97673.81
2022-10-11T09:46:03.986Z,97666.34
2022-10-11T09:51:07.476Z,97660.88
2022-10-11T09:56:05.843Z,97668.97
2022-10-11T10:01:07.854Z,97672.13
2022-10-11T10:06:09.560Z,97674.28
2022-10-11T10:11:06.515Z,97679.03
2022-10-11T10:16:00.455Z,97663.84
2022-10-11T10:20:57.803Z,97655.91
2022-10-11T10:25:53.062Z,97656.09
2022-10-11T10:30:55.227Z,97644.72
2022-10-11T10:35:57.618Z,97649.22
2022-10-11T10:40:54.332Z,97650.78
2022-10-11T10:46:10.906Z,97646.97
2022-10-11T10:51:22.878Z,97646.44
2022-10-11T10:56:24.948Z,97641.56
2022-10-11T11:01:24.916Z,97629.47
2022-10-11T11:06:32.770Z,97630.88
2022-10-11T11:11:50.626Z,97624.44
2022-10-11T11:16:55.160Z,97620.66
2022-10-11T11:22:02.473Z,97620.66
2022-10-11T11:27:11.234Z,97606.06
2022-10-11T11:32:23.209Z,97607.84
2022-10-11T11:37:29.497Z,97593.91
2022-10-11T11:42:35.388Z,97603.13
2022-10-11T11:47:35.455Z,97592.09
2022-10-11T11:52:37.743Z,97592.22
2022-10-11T11:57:53.025Z,97592.03
2022-10-11T12:02:53.418Z,97589.38
2022-10-11T12:08:05.441Z,97581.66
2022-10-11T12:13:19.367Z,97577.34
2022-10-11T12:18:19.938Z,97577.59
2022-10-11T12:23:44.548Z,97577.75
2022-10-11T12:29:28.485Z,97570.72
2022-10-11T12:34:36.892Z,97555.53
2022-10-11T12:39:52.738Z,97556.22
2022-10-11T12:45:35.164Z,97551.38
2022-10-11T12:50:40.955Z,97547.81
2022-10-11T12:55:57.568Z,97551.88
2022-10-11T13:01:35.923Z,97545.28
2022-10-11T13:06:33.831Z,97543.72
2022-10-11T13:11:33.737Z,97542.47
2022-10-11T13:16:30.476Z,97541.44
2022-10-11T13:21:32.890Z,97539.78
2022-10-11T13:26:29.104Z,97539.72
2022-10-11T13:31:24.222Z,97548.66
2022-10-11T13:36:19.561Z,97544.38
2022-10-11T13:41:13.018Z,97540.59
2022-10-11T13:46:16.471Z,97544.19
2022-10-11T13:51:16.835Z,97542.88
2022-10-11T13:56:12.687Z,97536.47
2022-10-11T14:01:18.830Z,97541.22
2022-10-11T14:06:18.654Z,97541.34
2022-10-11T14:11:16.221Z,97541.78
2022-10-11T14:16:13.641Z,97535.09
2022-10-11T14:21:34.743Z,97543.31
2022-10-11T14:26:40.100Z,97538.84
2022-10-11T14:31:41.692Z,97542.75
2022-10-11T14:36:36.117Z,97539.59
2022-10-11T14:41:34.327Z,97539.91
2022-10-11T14:46:28.530Z,97545.59
2022-10-11T14:51:29.252Z,97539.34
2022-10-11T14:56:24.696Z,97545.59
2022-10-11T15:01:21.266Z,97540.69
2022-10-11T15:06:27.213Z,97542.41
2022-10-11T15:11:27.490Z,97539.88
2022-10-11T15:16:27.277Z,97532.66
2022-10-11T15:21:24.624Z,97542.97
2022-10-11T15:26:21.352Z,97540.91
2022-10-11T15:31:15.306Z,97549.00
2022-10-11T15:36:13.595Z,97549.97
2022-10-11T15:41:09.098Z,97538.97
2022-10-11T15:46:04.416Z,97542.88
2022-10-11T15:50:58.707Z,97548.88
2022-10-11T15:55:55.001Z,97541.09
2022-10-11T16:00:54.089Z,97540.09
2022-10-11T16:05:47.327Z,97544.13
2022-10-11T16:10:41.218Z,97549.28
2022-10-11T16:15:35.553Z,97554.41
2022-10-11T16:20:30.287Z,97555.38
2022-10-11T16:25:25.008Z,97559.84
2022-10-11T16:30:20.926Z,97560.53
2022-10-11T16:35:16.267Z,97558.13
2022-10-11T16:40:15.829Z,97551.84
2022-10-11T16:45:11.543Z,97569.09
2022-10-11T16:50:06.829Z,97573.75
2022-10-11T16:55:00.236Z,97575.53
2022-10-11T16:59:54.910Z,97579.53
2022-10-11T17:04:50.597Z,97583.56
2022-10-11T17:09:45.548Z,97586.72
2022-10-11T17:14:39.497Z,97591.72
2022-10-11T17:19:34.504Z,97588.41
2022-10-11T17:24:28.267Z,97586.69
2022-10-11T17:29:24.053Z,97602.06
2022-10-11T19:08:28.323Z,97600.34
2022-10-11T21:27:55.222Z,97606.09
2022-10-11T21:48:20.195Z,97601.44
2022-10-11T21:53:13.730Z,97597.41
2022-10-11T21:58:08.010Z,97605.13
2022-10-11T23:41:21.334Z,97598.06
